Aeroporto :
LOGIN :

Iscrizione | Disclaimer

   EN    FR    IT 

 










Sommario :    VFR   VFR Marginale   IFR   IFR Intensivo   IFR Molto Intensivo
Visibilità : 
Base nubi : 
>= 8 km
>= 3000ft
5 / 8 km
1000 / 3000 ft
1500m / 5 km
500 / 1000 ft
800 / 1500m
200 / 500 ft
< 800m
< 200 ft
Simboli :   Temporali  Nebbia  Neve Forte  Precipitazioni Forti  Vento > 20 kt
SIGMETs :   Varie  Temporali  Ghiacco  Turbolenza  Onda orograficha  Ceneri Vulcaniche






- Altitudine del aeroporto : 299 ft
- Codice IATA : EDM


LFRI - La Roche Sur Yon - Les Ajoncs

ULTIMO METAR :
  • 051330Z AUTO 28004KT 9999 FEW017 09/06 Q0991 TEMPO 4000 SHRA BKN025CB

METARs OBSOLETI :
  • 051300Z AUTO VRB03KT 9000 -RA FEW013 BKN021 OVC033 08/07 Q0991 TEMPO 4000 SHRA BKN025CB
  • 051230Z AUTO 17005KT 9999 FEW014 SCT028 BKN035 09/07 Q0991 TEMPO 4000 SHRA BKN025CB BECMG 29010KT
  • 051200Z AUTO 19008KT 9999 SCT006 BKN013 OVC019 09/08 Q0991 TEMPO 4000 SHRA BKN025CB BECMG 29010KT
  • 051130Z AUTO 16010KT 9999 BKN005 BKN026 OVC031 09/08 Q0991 TEMPO 4000 SHRA BKN025CB BECMG 29010KT
  • 051100Z AUTO 15008KT 9999 BKN004/// OVC027/// ///TCU 07/07 Q0991 TEMPO 4000 SHRA BKN025CB BECMG 29010KT

TAF TAF LFRI
Valido dal 05 a 12 ore il 06 a 12 ore UTC


051100Z 0512/0612 17008KT 9999 SCT015
TEMPO 0512/0513 BKN004
BECMG 0512/0514 29010KT NSW BKN025
TEMPO 0512/0612 4000 SHRA BKN025CB



MetMap, La meteo Aeronautica in un colpo d'occhio ! - Copyright ORBIFLY Dicembre 2007 - Disclaimer

ORBIFLY MET'MAP TEAM :

Programmazione e sviluppo : Alexandra Zaïnal
Concezione : Baudouin d'Aumeries
Aiuto per la programmazione : Marc-Olivier Méhu
Supporto tecnico e logistico : Manuel Goepfert
Aiuto per la traduzione : Arnaldo La Scala

Contatto : metmap@orbifly.com




FONTI E CREDITI :

   NOAA